Terminal Aerodrome Forecast
Issued by NWS Albuquerque, NM

Home | Current Version | Previous Version | Text Only | Print | Product List | Glossary On
Versions: 1 2 3 4 5 6 7 8 9 10 11 12
000
FTUS45 KABQ 240533
TAFABQ
TAF
KABQ 240533Z 2406/2506 15007KT P6SM SKC
     FM241800 20008KT P6SM SCT250
     FM242300 15010KT P6SM SCT250
     FM250200 10025G35KT P6SM SCT150=

USA.gov is the U.S. government's official web portal to all federal, state and local government web resources and services.